createdAt,value
2022-11-21T00:00:44.534Z,25.03
2022-11-21T00:03:11.279Z,27.33
2022-11-21T00:05:42.380Z,23.00
2022-11-21T00:08:15.117Z,28.90
2022-11-21T00:10:42.088Z,21.97
2022-11-21T00:13:13.589Z,26.50
2022-11-21T00:15:40.298Z,26.97
2022-11-21T00:18:06.903Z,21.80
2022-11-21T00:20:35.869Z,23.50
2022-11-21T00:23:11.781Z,24.53
2022-11-21T00:25:38.587Z,23.40
2022-11-21T00:28:05.742Z,23.03
2022-11-21T00:30:32.247Z,23.10
2022-11-21T00:32:59.166Z,20.70
2022-11-21T00:35:25.713Z,20.87
2022-11-21T00:37:52.179Z,19.40
2022-11-21T00:40:22.346Z,20.40
2022-11-21T00:42:49.841Z,20.57
2022-11-21T00:45:21.177Z,19.50
2022-11-21T00:47:50.534Z,21.53
2022-11-21T00:50:17.143Z,22.33
2022-11-21T00:52:43.648Z,20.03
2022-11-21T00:55:10.314Z,20.70
2022-11-21T00:57:36.857Z,21.00
2022-11-21T01:00:04.808Z,18.30
2022-11-21T01:02:32.485Z,20.00
2022-11-21T01:04:59.011Z,21.27
2022-11-21T01:07:25.544Z,17.50
2022-11-21T01:09:52.069Z,20.97
2022-11-21T01:12:18.967Z,20.67
2022-11-21T01:14:45.524Z,20.70
2022-11-21T01:17:11.981Z,19.33
2022-11-21T01:19:38.461Z,20.87
2022-11-21T01:22:04.919Z,18.03
2022-11-21T01:24:31.412Z,19.43
2022-11-21T01:26:58.146Z,19.47
2022-11-21T01:29:24.687Z,18.17
2022-11-21T01:31:51.159Z,21.57
2022-11-21T01:34:18.555Z,22.37
2022-11-21T01:36:45.710Z,20.00
2022-11-21T01:39:12.442Z,19.57
2022-11-21T01:41:44.189Z,17.33
2022-11-21T01:44:15.261Z,20.00
2022-11-21T01:46:41.766Z,17.23
2022-11-21T01:49:11.604Z,21.00
2022-11-21T01:55:37.754Z,17.77
2022-11-21T01:58:05.075Z,20.57
2022-11-21T02:00:37.051Z,20.47
2022-11-21T02:03:08.541Z,19.17
2022-11-21T02:05:36.972Z,20.13
2022-11-21T02:08:07.571Z,16.60
2022-11-21T02:10:34.848Z,18.70
2022-11-21T02:13:01.623Z,20.30
2022-11-21T02:15:29.244Z,19.97
2022-11-21T02:17:56.366Z,22.40
2022-11-21T02:20:24.390Z,18.67
2022-11-21T02:23:03.162Z,20.93
2022-11-21T02:25:31.457Z,22.00
2022-11-21T02:28:03.253Z,23.60
2022-11-21T02:30:31.726Z,22.03
2022-11-21T02:32:58.554Z,21.60
2022-11-21T02:35:25.086Z,19.83
2022-11-21T02:37:55.034Z,21.10
2022-11-21T02:40:25.552Z,25.23
2022-11-21T02:43:03.785Z,22.90
2022-11-21T02:45:41.524Z,23.67
2022-11-21T02:48:08.393Z,19.00
2022-11-21T02:50:36.980Z,22.53
2022-11-21T02:53:05.169Z,22.40
2022-11-21T02:55:31.801Z,21.87
2022-11-21T02:58:01.769Z,24.43
2022-11-21T03:00:31.052Z,28.20
2022-11-21T03:02:57.535Z,24.17
2022-11-21T03:05:24.044Z,22.17
2022-11-21T03:07:50.523Z,25.20
2022-11-21T03:10:17.431Z,25.20
2022-11-21T03:12:44.358Z,30.73
2022-11-21T03:15:13.642Z,27.47
2022-11-21T03:17:40.411Z,24.23
2022-11-21T03:20:08.238Z,25.60
2022-11-21T03:22:35.056Z,24.97
2022-11-21T03:25:01.686Z,25.90
2022-11-21T03:27:28.371Z,26.07
2022-11-21T03:29:54.872Z,25.93
2022-11-21T03:32:21.319Z,28.80
2022-11-21T03:34:47.806Z,25.83
2022-11-21T03:37:14.282Z,25.97
2022-11-21T03:39:40.746Z,25.97
2022-11-21T03:42:07.254Z,29.90
2022-11-21T03:44:33.694Z,33.03
2022-11-21T03:47:00.164Z,26.43
2022-11-21T03:49:26.615Z,29.33
2022-11-21T03:51:53.042Z,26.90
2022-11-21T03:54:19.528Z,25.63
2022-11-21T03:56:46.109Z,26.50
2022-11-21T03:59:12.634Z,27.37
2022-11-21T04:01:39.323Z,29.17
2022-11-21T04:04:05.958Z,27.60
2022-11-21T04:06:32.492Z,30.77
2022-11-21T04:08:58.961Z,31.90
2022-11-21T04:11:25.456Z,28.83
2022-11-21T04:13:52.550Z,30.47
2022-11-21T04:16:19.533Z,34.33
2022-11-21T04:18:46.021Z,29.57
2022-11-21T04:21:12.544Z,27.70
2022-11-21T04:23:38.973Z,28.30
2022-11-21T04:26:05.523Z,29.63
2022-11-21T04:28:32.029Z,35.40
2022-11-21T04:31:10.878Z,30.23
2022-11-21T04:33:41.180Z,29.17
2022-11-21T04:36:08.384Z,31.20
2022-11-21T04:38:35.112Z,33.93
2022-11-21T04:41:01.668Z,36.90
2022-11-21T04:43:28.122Z,29.43
2022-11-21T04:45:54.617Z,32.17
2022-11-21T04:48:21.158Z,35.90
2022-11-21T04:50:47.688Z,32.43
2022-11-21T04:53:14.276Z,35.00
2022-11-21T04:55:40.695Z,33.60
2022-11-21T04:58:07.457Z,31.10
2022-11-21T05:00:34.906Z,34.97
2022-11-21T05:03:05.782Z,36.90
2022-11-21T05:05:32.789Z,35.93
2022-11-21T05:07:59.357Z,30.90
2022-11-21T05:10:25.868Z,31.00
2022-11-21T05:13:18.279Z,31.70
2022-11-21T05:15:45.233Z,36.83
2022-11-21T05:18:11.830Z,35.77
2022-11-21T05:20:38.273Z,37.93
2022-11-21T05:23:04.826Z,49.07
2022-11-21T05:25:31.505Z,33.50
2022-11-21T05:27:57.974Z,36.10
2022-11-21T05:30:24.456Z,33.40
2022-11-21T05:32:51.051Z,33.77
2022-11-21T05:35:17.535Z,32.33
2022-11-21T05:37:44.184Z,31.53
2022-11-21T05:40:11.164Z,35.03
2022-11-21T05:43:01.079Z,30.63
2022-11-21T05:45:27.628Z,30.47
2022-11-21T05:47:54.098Z,31.60
2022-11-21T05:50:20.579Z,37.70
2022-11-21T05:52:47.139Z,34.13
2022-11-21T05:55:13.738Z,38.53
2022-11-21T05:57:40.335Z,39.63
2022-11-21T06:00:07.466Z,31.00
2022-11-21T06:02:52.732Z,42.23
2022-11-21T06:05:19.602Z,45.13
2022-11-21T06:07:46.211Z,33.33
2022-11-21T06:10:12.770Z,34.50
2022-11-21T06:12:39.255Z,32.93
2022-11-21T06:15:06.418Z,30.83
2022-11-21T06:17:32.931Z,40.07
2022-11-21T06:19:59.403Z,38.10
2022-11-21T06:22:25.875Z,52.27
2022-11-21T06:24:52.421Z,38.20
2022-11-21T06:27:19.204Z,31.13
2022-11-21T06:29:46.009Z,36.60
2022-11-21T06:32:12.603Z,32.80
2022-11-21T06:34:39.103Z,37.37
2022-11-21T06:37:05.884Z,36.20
2022-11-21T06:39:32.354Z,34.43
2022-11-21T06:41:58.969Z,34.03
2022-11-21T06:44:25.796Z,41.13
2022-11-21T06:46:52.421Z,29.73
2022-11-21T06:49:18.975Z,31.50
2022-11-21T06:51:45.446Z,31.30
2022-11-21T06:54:16.473Z,27.50
2022-11-21T06:56:43.924Z,36.33
2022-11-21T06:59:10.774Z,30.30
2022-11-21T07:01:37.423Z,35.87
2022-11-21T07:04:04.353Z,32.77
2022-11-21T07:06:30.834Z,34.50
2022-11-21T07:09:30.844Z,41.00
2022-11-21T07:11:43.915Z,36.00
2022-11-21T07:14:10.601Z,34.30
2022-11-21T07:16:37.285Z,42.53
2022-11-21T07:19:03.780Z,39.17
2022-11-21T07:21:30.349Z,37.07
2022-11-21T07:23:56.838Z,29.60
2022-11-21T07:26:23.339Z,38.90
2022-11-21T07:28:49.840Z,35.63
2022-11-21T07:31:16.522Z,36.03
2022-11-21T07:33:46.866Z,35.70
2022-11-21T07:36:13.842Z,35.03
2022-11-21T07:38:41.604Z,41.17
2022-11-21T07:41:08.909Z,36.90
2022-11-21T07:43:35.452Z,34.87
2022-11-21T07:46:02.042Z,32.93
2022-11-21T07:48:28.527Z,30.20
2022-11-21T07:50:54.955Z,30.60
2022-11-21T07:53:21.673Z,32.73
2022-11-21T07:55:48.277Z,31.60
2022-11-21T07:58:16.295Z,34.73
2022-11-21T08:00:43.100Z,34.80
2022-11-21T08:03:11.907Z,36.03
2022-11-21T08:05:42.616Z,32.47
2022-11-21T08:08:10.110Z,34.37
2022-11-21T08:10:44.613Z,33.77
2022-11-21T08:13:11.979Z,35.47
2022-11-21T08:15:39.087Z,33.73
2022-11-21T08:18:08.912Z,33.47
2022-11-21T08:20:35.797Z,38.43
2022-11-21T08:23:02.962Z,30.30
2022-11-21T08:25:29.434Z,33.23
2022-11-21T08:27:59.517Z,28.20
2022-11-21T08:30:26.535Z,35.47
2022-11-21T08:32:53.007Z,30.50
2022-11-21T08:35:19.612Z,28.70
2022-11-21T08:37:46.187Z,36.00
2022-11-21T08:40:12.699Z,32.37
2022-11-21T08:42:39.192Z,29.70
2022-11-21T08:45:06.189Z,32.53
2022-11-21T08:47:33.864Z,33.70
2022-11-21T08:50:04.346Z,28.00
2022-11-21T08:52:34.031Z,28.03
2022-11-21T08:55:00.495Z,29.13
2022-11-21T08:57:27.003Z,29.97
2022-11-21T08:59:53.550Z,29.27
2022-11-21T09:02:20.000Z,26.70
2022-11-21T09:04:46.476Z,26.67
2022-11-21T09:07:12.968Z,24.40
2022-11-21T09:09:39.485Z,27.80
2022-11-21T09:12:06.267Z,28.40
2022-11-21T09:14:51.340Z,26.67
2022-11-21T09:17:36.289Z,26.70
2022-11-21T09:20:03.278Z,27.23
2022-11-21T09:22:30.028Z,30.23
2022-11-21T09:24:56.476Z,28.70
2022-11-21T09:27:22.956Z,27.67
2022-11-21T09:29:53.852Z,24.30
2022-11-21T09:32:20.858Z,24.13
2022-11-21T09:34:47.316Z,26.03
2022-11-21T09:37:14.027Z,23.53
2022-11-21T09:39:40.568Z,25.90
2022-11-21T09:42:15.973Z,23.63
2022-11-21T09:45:04.270Z,28.70
2022-11-21T09:47:52.499Z,27.73
2022-11-21T09:50:26.185Z,22.77
2022-11-21T09:53:14.459Z,28.07
2022-11-21T09:55:50.975Z,29.67
2022-11-21T09:58:37.385Z,28.50
2022-11-21T10:01:04.156Z,28.70
2022-11-21T10:03:41.326Z,31.73
2022-11-21T10:06:26.069Z,31.43
2022-11-21T10:08:58.342Z,28.73
2022-11-21T10:12:11.264Z,30.70
2022-11-21T10:14:55.716Z,33.50
2022-11-21T10:17:54.207Z,26.00
2022-11-21T10:20:29.453Z,27.30
2022-11-21T10:23:20.737Z,33.10
2022-11-21T10:25:58.047Z,32.43
2022-11-21T10:28:37.939Z,27.60
2022-11-21T10:31:04.726Z,29.70
2022-11-21T10:33:33.458Z,28.10
2022-11-21T10:36:13.861Z,29.27
2022-11-21T10:38:43.363Z,25.70
2022-11-21T10:41:21.714Z,26.93
2022-11-21T10:44:47.264Z,25.97
2022-11-21T10:47:33.549Z,27.20
2022-11-21T10:50:09.104Z,25.40
2022-11-21T10:52:49.269Z,27.73
2022-11-21T10:55:16.852Z,33.03
2022-11-21T10:57:48.589Z,23.80
2022-11-21T11:00:22.501Z,33.20
2022-11-21T11:03:04.761Z,28.20
2022-11-21T11:05:36.289Z,25.70
2022-11-21T11:08:02.833Z,31.30
2022-11-21T11:10:29.991Z,31.70
2022-11-21T11:13:44.410Z,27.93
2022-11-21T11:16:25.475Z,30.33
2022-11-21T11:19:15.733Z,29.43
2022-11-21T11:21:44.396Z,31.57
2022-11-21T11:24:10.871Z,32.03
2022-11-21T11:26:48.106Z,32.50
2022-11-21T11:29:19.556Z,36.53
2022-11-21T11:32:01.355Z,32.73
2022-11-21T11:34:42.193Z,43.33
2022-11-21T11:37:31.269Z,33.30
2022-11-21T11:40:21.620Z,34.13
2022-11-21T11:43:29.617Z,31.40
2022-11-21T11:46:32.654Z,31.73
2022-11-21T11:49:20.350Z,26.80
2022-11-21T11:51:55.380Z,30.30
2022-11-21T11:54:26.830Z,30.13
2022-11-21T11:56:53.956Z,30.23
2022-11-21T11:59:51.214Z,26.33
2022-11-21T12:02:42.754Z,44.20
2022-11-21T12:05:14.670Z,51.40
2022-11-21T12:10:37.120Z,26.27
2022-11-21T12:13:11.443Z,26.60
2022-11-21T12:15:49.921Z,28.07
2022-11-21T12:18:20.601Z,22.37
2022-11-21T12:21:04.246Z,23.03
2022-11-21T12:23:30.670Z,21.40
2022-11-21T12:26:21.522Z,27.93
2022-11-21T12:29:16.964Z,25.87
2022-11-21T12:32:10.165Z,22.37
2022-11-21T12:35:04.788Z,19.70
2022-11-21T12:37:59.235Z,20.53
2022-11-21T12:40:34.830Z,32.30
2022-11-21T12:43:24.747Z,181.00
2022-11-21T12:45:55.272Z,27.07
2022-11-21T12:49:18.526Z,26.57
2022-11-21T12:52:15.727Z,26.80
2022-11-21T12:54:57.728Z,22.30
2022-11-21T12:57:32.960Z,25.73
2022-11-21T13:00:21.194Z,23.37
2022-11-21T13:03:03.843Z,23.30
2022-11-21T13:05:38.017Z,24.77
2022-11-21T13:08:13.758Z,24.17
2022-11-21T13:10:46.977Z,20.80
2022-11-21T13:13:30.442Z,24.43
2022-11-21T13:16:06.366Z,28.17
2022-11-21T13:18:41.921Z,25.37
2022-11-21T13:21:44.485Z,25.23
2022-11-21T13:24:11.599Z,24.00
2022-11-21T13:26:38.011Z,25.93
2022-11-21T13:29:08.100Z,28.90
2022-11-21T13:31:34.976Z,29.20
2022-11-21T13:34:03.006Z,28.93
2022-11-21T13:36:29.491Z,26.63
2022-11-21T13:38:59.876Z,27.93
2022-11-21T13:41:53.917Z,26.63
2022-11-21T13:44:32.556Z,29.63
2022-11-21T13:47:05.019Z,31.93
2022-11-21T13:49:36.743Z,25.27
2022-11-21T13:52:11.651Z,29.63
2022-11-21T13:55:06.112Z,25.67
2022-11-21T13:58:03.048Z,24.60
2022-11-21T14:00:38.046Z,31.23
2022-11-21T14:03:10.607Z,26.20
2022-11-21T14:05:59.312Z,33.33
2022-11-21T14:08:27.563Z,28.10
2022-11-21T14:10:56.128Z,34.87
2022-11-21T14:13:30.031Z,27.10
2022-11-21T14:16:30.932Z,27.53
2022-11-21T14:18:58.214Z,28.57
2022-11-21T14:21:29.777Z,26.03
2022-11-21T14:23:58.407Z,27.07
2022-11-21T14:26:25.578Z,27.00
2022-11-21T14:28:52.232Z,30.37
2022-11-21T14:31:19.195Z,23.67
2022-11-21T14:33:47.430Z,25.27
2022-11-21T14:36:16.580Z,29.23
2022-11-21T14:39:29.011Z,25.67
2022-11-21T14:41:48.578Z,30.53
2022-11-21T14:44:17.564Z,34.50
2022-11-21T14:46:44.775Z,27.13
2022-11-21T14:49:17.348Z,35.37
2022-11-21T14:52:02.626Z,24.00
2022-11-21T14:55:06.316Z,21.53
2022-11-21T14:57:37.218Z,28.13
2022-11-21T15:00:06.078Z,26.57
2022-11-21T15:02:33.195Z,22.73
2022-11-21T15:05:02.820Z,29.53
2022-11-21T15:07:45.221Z,22.47
2022-11-21T15:13:13.754Z,27.20
2022-11-21T15:15:44.307Z,26.60
2022-11-21T15:18:27.902Z,24.93
2022-11-21T15:20:57.134Z,26.37
2022-11-21T15:23:33.650Z,21.83
2022-11-21T15:26:01.601Z,28.73
2022-11-21T15:28:29.476Z,29.10
2022-11-21T15:31:34.564Z,23.60
2022-11-21T15:37:03.557Z,30.30
2022-11-21T15:39:30.203Z,31.97
2022-11-21T15:42:34.285Z,26.93
2022-11-21T15:45:03.292Z,25.33
2022-11-21T15:47:29.803Z,25.23
2022-11-21T15:49:56.245Z,29.63
2022-11-21T15:52:23.281Z,29.17
2022-11-21T15:54:50.079Z,25.33
2022-11-21T15:57:14.857Z,25.97
2022-11-21T15:57:21.485Z,25.77
2022-11-21T15:59:49.597Z,25.60
2022-11-21T16:02:16.324Z,26.83
2022-11-21T16:04:42.848Z,29.23
2022-11-21T16:07:12.185Z,26.37
2022-11-21T16:09:39.332Z,25.13
2022-11-21T16:12:06.366Z,21.30
2022-11-21T16:14:32.781Z,24.87
2022-11-21T16:16:59.265Z,23.03
2022-11-21T16:19:25.964Z,19.87
2022-11-21T16:21:53.691Z,19.90
2022-11-21T16:24:20.499Z,24.80
2022-11-21T16:26:47.165Z,17.40
2022-11-21T16:29:14.113Z,21.03
2022-11-21T16:31:40.749Z,18.03
2022-11-21T16:34:07.198Z,18.10
2022-11-21T16:36:33.746Z,15.07
2022-11-21T16:39:07.772Z,14.57
2022-11-21T16:41:36.875Z,13.17
2022-11-21T16:44:03.471Z,17.00
2022-11-21T16:46:30.419Z,13.37
2022-11-21T16:49:01.505Z,14.63
2022-11-21T16:51:28.522Z,11.80
2022-11-21T16:53:56.995Z,13.80
2022-11-21T16:56:23.863Z,12.13
2022-11-21T16:58:50.468Z,17.90
2022-11-21T17:01:25.118Z,10.37
2022-11-21T17:03:52.369Z,13.30
2022-11-21T17:06:24.557Z,10.73
2022-11-21T17:08:51.157Z,9.50
2022-11-21T17:11:29.545Z,8.73
2022-11-21T17:13:58.410Z,12.87
2022-11-21T17:16:24.959Z,12.57
2022-11-21T17:18:56.421Z,48.40
2022-11-21T17:21:23.523Z,16.63
2022-11-21T17:23:50.450Z,15.10
2022-11-21T17:26:19.089Z,16.90
2022-11-21T17:28:54.153Z,15.10
2022-11-21T17:31:21.220Z,14.93
2022-11-21T17:33:51.658Z,14.87
2022-11-21T17:36:22.362Z,13.57
2022-11-21T17:38:49.294Z,18.80
2022-11-21T17:41:17.586Z,11.97
2022-11-21T17:43:44.639Z,16.00
2022-11-21T17:46:17.044Z,16.87
2022-11-21T17:48:47.349Z,21.37
2022-11-21T17:51:18.820Z,14.20
2022-11-21T17:53:47.169Z,19.57
2022-11-21T17:56:16.399Z,14.63
2022-11-21T17:58:45.112Z,17.10
2022-11-21T18:01:18.755Z,14.70
2022-11-21T18:04:03.141Z,17.30
2022-11-21T18:06:34.377Z,15.60
2022-11-21T18:09:00.875Z,15.10
2022-11-21T18:11:32.060Z,16.23
2022-11-21T18:14:03.791Z,15.83
2022-11-21T18:16:31.771Z,18.97
2022-11-21T18:18:59.047Z,18.00
2022-11-21T18:21:28.436Z,19.10
2022-11-21T18:23:56.496Z,20.37
2022-11-21T18:26:24.035Z,31.10
2022-11-21T18:29:13.093Z,24.87
2022-11-21T18:31:38.952Z,18.00
2022-11-21T18:34:06.561Z,20.97
2022-11-21T18:36:33.261Z,43.57
2022-11-21T18:39:05.939Z,22.53
2022-11-21T18:41:36.368Z,20.43
2022-11-21T18:44:06.773Z,17.00
2022-11-21T18:46:34.882Z,16.07
2022-11-21T18:49:05.158Z,15.57
2022-11-21T18:51:33.880Z,19.43
2022-11-21T18:54:07.124Z,13.30
2022-11-21T18:56:34.806Z,15.17
2022-11-21T18:59:03.228Z,12.03
2022-11-21T19:01:33.476Z,10.67
2022-11-21T19:04:00.049Z,10.70
2022-11-21T19:06:28.827Z,13.37
2022-11-21T19:08:57.049Z,13.20
2022-11-21T19:11:25.497Z,16.87
2022-11-21T19:13:53.057Z,16.23
2022-11-21T19:16:22.065Z,30.27
2022-11-21T19:19:11.697Z,17.87
2022-11-21T19:21:38.696Z,15.40
2022-11-21T19:24:09.350Z,13.97
2022-11-21T19:26:35.896Z,14.87
2022-11-21T19:29:02.398Z,15.00
2022-11-21T19:31:28.894Z,13.63
2022-11-21T19:33:55.381Z,15.60
2022-11-21T19:36:23.673Z,19.70
2022-11-21T19:38:51.539Z,16.40
2022-11-21T19:41:20.839Z,19.97
2022-11-21T19:43:58.770Z,12.73
2022-11-21T19:46:43.543Z,11.53
2022-11-21T19:49:11.298Z,13.07
2022-11-21T19:51:40.468Z,13.83
2022-11-21T19:54:08.166Z,7.40
2022-11-21T19:56:35.448Z,10.53
2022-11-21T19:59:05.565Z,10.73
2022-11-21T20:01:33.566Z,9.03
2022-11-21T20:04:02.415Z,8.87
2022-11-21T20:06:34.361Z,10.70
2022-11-21T20:09:04.098Z,9.47
2022-11-21T20:11:31.635Z,11.80
2022-11-21T20:13:58.691Z,8.90
2022-11-21T20:16:39.886Z,9.30
2022-11-21T20:19:09.795Z,12.10
2022-11-21T20:21:37.373Z,20.73
2022-11-21T20:24:05.026Z,19.57
2022-11-21T20:26:32.521Z,17.50
2022-11-21T20:28:59.345Z,17.73
2022-11-21T20:31:28.564Z,15.50
2022-11-21T20:33:58.153Z,13.43
2022-11-21T20:36:26.039Z,14.73
2022-11-21T20:38:56.934Z,14.87
2022-11-21T20:41:25.713Z,11.80
2022-11-21T20:44:44.699Z,8.30
2022-11-21T20:46:43.105Z,9.77
2022-11-21T20:49:09.939Z,17.47
2022-11-21T20:54:23.260Z,14.43
2022-11-21T20:56:49.831Z,14.90
2022-11-21T20:59:16.357Z,8.87
2022-11-21T21:01:43.164Z,17.57
2022-11-21T21:04:10.004Z,7.43
2022-11-21T21:06:37.528Z,10.73
2022-11-21T21:09:04.254Z,11.33
2022-11-21T21:11:52.911Z,7.30
2022-11-21T21:14:17.333Z,7.40
2022-11-21T21:16:43.825Z,9.53
2022-11-21T21:19:10.340Z,12.70
2022-11-21T21:21:37.050Z,8.90
2022-11-21T21:24:06.091Z,9.60
2022-11-21T21:26:41.567Z,6.90
2022-11-21T21:29:10.743Z,5.50
2022-11-21T21:31:37.255Z,8.77
2022-11-21T21:34:03.797Z,9.40
2022-11-21T21:36:32.027Z,7.37
2022-11-21T21:38:59.583Z,5.90
2022-11-21T21:41:28.965Z,6.07
2022-11-21T21:43:57.084Z,8.30
2022-11-21T21:46:27.629Z,5.37
2022-11-21T21:48:56.184Z,7.67
2022-11-21T21:51:30.470Z,5.60
2022-11-21T21:53:58.419Z,9.37
2022-11-21T21:56:27.440Z,9.60
2022-11-21T21:58:54.006Z,4.70
2022-11-21T22:01:27.472Z,5.03
2022-11-21T22:03:56.076Z,6.50
2022-11-21T22:06:22.623Z,8.13
2022-11-21T22:08:50.008Z,5.37
2022-11-21T22:11:18.939Z,6.83
2022-11-21T22:13:47.908Z,11.07
2022-11-21T22:16:14.522Z,5.90
2022-11-21T22:18:41.631Z,5.03
2022-11-21T22:21:22.013Z,5.43
2022-11-21T22:24:17.722Z,5.43
2022-11-21T22:26:35.041Z,7.23
2022-11-21T22:29:01.594Z,9.33
2022-11-21T22:31:30.687Z,9.70
2022-11-21T22:33:57.207Z,6.67
2022-11-21T22:36:23.886Z,6.77
2022-11-21T22:38:53.763Z,8.50
2022-11-21T22:41:25.106Z,7.50
2022-11-21T22:43:59.254Z,6.97
2022-11-21T22:46:27.241Z,8.70
2022-11-21T22:48:54.374Z,4.00
2022-11-21T22:51:23.684Z,4.93
2022-11-21T22:53:50.581Z,9.00
2022-11-21T22:56:19.053Z,3.17
2022-11-21T22:58:46.145Z,5.60
2022-11-21T23:01:16.732Z,10.70
2022-11-21T23:03:43.867Z,5.30
2022-11-21T23:06:18.482Z,7.63
2022-11-21T23:08:45.448Z,4.50
2022-11-21T23:11:14.856Z,3.00
2022-11-21T23:13:43.816Z,8.03
2022-11-21T23:16:11.111Z,3.83
2022-11-21T23:18:37.956Z,4.33
2022-11-21T23:21:05.004Z,11.20
2022-11-21T23:23:32.270Z,7.60
2022-11-21T23:25:59.192Z,2.90
2022-11-21T23:28:25.960Z,3.57
2022-11-21T23:30:52.440Z,3.20
2022-11-21T23:33:19.281Z,2.53
2022-11-21T23:35:46.289Z,4.23
2022-11-21T23:38:14.576Z,2.80
2022-11-21T23:40:41.257Z,2.87
2022-11-21T23:43:08.186Z,4.57
2022-11-21T23:45:34.995Z,3.20
2022-11-21T23:48:01.628Z,1.87
2022-11-21T23:50:28.195Z,2.10
2022-11-21T23:52:54.876Z,2.50
2022-11-21T23:55:21.348Z,8.40
2022-11-21T23:57:48.526Z,6.93
